Snook, Texas
Current Conditions -  °F | °C
As of 5:53 PM on Thursday 27 Nov 2014 (Local Time) from KCLL Reporting Station
Clear Clear  
Wind Chill: 14°   Ceiling: Unl
Heat Index: 14°   Visibility: 10mi
Dew Point: -2°   Wind: 5mph
Humidity: 33%   Direction: 70°ENE
Pressure: 30.41"   Gusts: NA
Location:  30.49°N, 96.46°W
Report Text: KCLL 272353Z 07004KT 10SM CLR 14/M02 A3041 RMK AO2 SLP295 T01441017 10183 20144 56006
Loading
Personal Weather Stations






























Interactive Weather Map New forecast layout! Learn more

10-Day Weather Forecast

Advertisements
Track Severe Weather on mobile